createdAt,value
2022-11-06T00:04:34.525Z,86.70
2022-11-06T00:09:37.467Z,87.73
2022-11-06T00:14:40.370Z,88.61
2022-11-06T00:19:44.635Z,87.64
2022-11-06T00:24:49.396Z,86.67
2022-11-06T00:29:52.279Z,86.91
2022-11-06T00:34:56.550Z,86.82
2022-11-06T00:40:00.778Z,87.19
2022-11-06T00:45:03.669Z,86.96
2022-11-06T00:50:09.080Z,87.46
2022-11-06T00:55:12.501Z,87.01
2022-11-06T01:00:18.067Z,86.54
2022-11-06T01:05:22.345Z,86.88
2022-11-06T01:10:25.243Z,86.91
2022-11-06T01:15:28.117Z,86.92
2022-11-06T01:20:32.413Z,87.28
2022-11-06T01:25:35.333Z,86.22
2022-11-06T01:30:38.471Z,86.85
2022-11-06T01:35:47.175Z,87.60
2022-11-06T01:40:50.814Z,87.68
2022-11-06T01:45:55.280Z,87.99
2022-11-06T01:51:00.278Z,88.34
2022-11-06T01:56:06.063Z,88.16
2022-11-06T02:01:09.352Z,87.59
2022-11-06T02:06:14.190Z,87.89
2022-11-06T02:11:17.057Z,86.85
2022-11-06T02:16:30.901Z,87.89
2022-11-06T02:21:55.707Z,88.16
2022-11-06T02:27:10.391Z,87.00
2022-11-06T02:32:19.790Z,86.77
2022-11-06T02:37:29.177Z,86.99
2022-11-06T02:42:38.361Z,87.64
2022-11-06T02:47:44.253Z,87.93
2022-11-06T02:52:53.262Z,87.47
2022-11-06T02:58:01.566Z,88.11
2022-11-06T03:03:11.582Z,87.38
2022-11-06T03:08:21.679Z,86.73
2022-11-06T03:13:33.718Z,86.42
2022-11-06T03:18:43.210Z,86.51
2022-11-06T03:23:53.701Z,86.08
2022-11-06T03:29:02.893Z,86.41
2022-11-06T03:34:11.690Z,86.45
2022-11-06T03:39:20.589Z,85.90
2022-11-06T03:44:29.522Z,86.11
2022-11-06T03:49:36.393Z,86.49
2022-11-06T03:54:43.352Z,86.73
2022-11-06T03:59:52.591Z,86.28
2022-11-06T04:04:59.961Z,86.26
2022-11-06T04:10:39.468Z,85.57
2022-11-06T04:15:49.026Z,85.30
2022-11-06T04:21:18.559Z,86.32
2022-11-06T04:32:07.942Z,86.21
2022-11-06T04:37:16.136Z,85.33
2022-11-06T04:42:26.943Z,86.55
2022-11-06T04:47:31.366Z,86.75
2022-11-06T04:52:36.376Z,86.37
2022-11-06T04:57:39.295Z,86.37
2022-11-06T05:02:43.569Z,87.26
2022-11-06T05:07:46.458Z,86.36
2022-11-06T05:12:49.375Z,86.21
2022-11-06T05:17:53.653Z,85.87
2022-11-06T05:23:00.668Z,85.79
2022-11-06T05:28:07.063Z,85.67
2022-11-06T05:33:11.347Z,85.06
2022-11-06T05:38:14.636Z,86.46
2022-11-06T05:43:17.761Z,86.22
2022-11-06T05:48:22.258Z,85.99
2022-11-06T05:53:25.154Z,86.31
2022-11-06T05:58:28.715Z,86.09
2022-11-06T06:03:33.055Z,85.44
2022-11-06T06:08:36.212Z,85.42
2022-11-06T06:13:39.178Z,85.39
2022-11-06T06:18:43.455Z,85.51
2022-11-06T06:23:46.592Z,86.01
2022-11-06T06:28:50.208Z,85.84
2022-11-06T06:33:54.748Z,85.86
2022-11-06T06:38:57.888Z,86.03
2022-11-06T06:44:00.965Z,85.67
2022-11-06T06:49:05.459Z,85.07
2022-11-06T06:54:08.618Z,84.66
2022-11-06T06:59:11.523Z,85.17
2022-11-06T07:04:16.739Z,85.39
2022-11-06T07:09:19.789Z,85.38
2022-11-06T07:14:22.732Z,85.94
2022-11-06T07:19:27.573Z,86.18
2022-11-06T07:24:30.696Z,86.53
2022-11-06T07:29:33.624Z,85.90
2022-11-06T07:34:38.928Z,84.80
2022-11-06T07:39:41.973Z,82.84
2022-11-06T07:44:44.975Z,81.82
2022-11-06T07:49:51.113Z,82.51
2022-11-06T07:54:54.653Z,82.12
2022-11-06T07:59:57.598Z,81.25
2022-11-06T08:05:02.057Z,80.81
2022-11-06T08:10:05.959Z,81.09
2022-11-06T08:15:09.520Z,79.52
2022-11-06T08:20:13.959Z,79.24
2022-11-06T08:25:16.965Z,77.53
2022-11-06T08:30:19.890Z,79.00
2022-11-06T08:35:24.175Z,78.86
2022-11-06T08:40:30.882Z,76.44
2022-11-06T08:45:37.184Z,75.03
2022-11-06T08:50:42.475Z,76.38
2022-11-06T08:55:45.619Z,75.62
2022-11-06T09:00:48.667Z,75.46
2022-11-06T09:05:53.017Z,73.08
2022-11-06T09:10:58.627Z,69.44
2022-11-06T09:16:02.210Z,70.24
2022-11-06T09:21:06.835Z,72.51
2022-11-06T09:26:09.971Z,69.54
2022-11-06T09:31:12.950Z,72.36
2022-11-06T09:36:17.209Z,70.80
2022-11-06T09:41:24.873Z,68.43
2022-11-06T09:46:31.519Z,65.53
2022-11-06T09:51:40.325Z,63.95
2022-11-06T09:56:46.648Z,65.00
2022-11-06T10:01:54.476Z,64.77
2022-11-06T10:06:59.031Z,63.28
2022-11-06T10:12:10.586Z,63.07
2022-11-06T10:17:24.292Z,61.94
2022-11-06T10:22:37.736Z,60.94
2022-11-06T10:27:42.905Z,60.62
2022-11-06T10:33:05.685Z,61.53
2022-11-06T10:38:15.433Z,58.51
2022-11-06T10:43:31.866Z,59.01
2022-11-06T10:48:41.525Z,61.12
2022-11-06T10:53:56.428Z,58.58
2022-11-06T10:58:59.600Z,61.13
2022-11-06T11:04:02.610Z,59.14
2022-11-06T11:09:28.534Z,59.44
2022-11-06T11:14:33.152Z,59.59
2022-11-06T11:19:37.414Z,58.11
2022-11-06T11:25:00.621Z,57.61
2022-11-06T11:30:05.597Z,58.34
2022-11-06T11:35:12.974Z,58.03
2022-11-06T11:40:37.498Z,57.14
2022-11-06T11:45:40.457Z,59.18
2022-11-06T11:50:43.515Z,56.56
2022-11-06T11:55:50.418Z,57.74
2022-11-06T12:00:56.865Z,57.17
2022-11-06T12:06:10.305Z,59.35
2022-11-06T12:11:20.728Z,56.43
2022-11-06T12:16:23.899Z,55.20
2022-11-06T12:21:31.166Z,54.93
2022-11-06T12:26:39.894Z,54.13
2022-11-06T12:31:48.901Z,55.54
2022-11-06T12:37:12.678Z,54.92
2022-11-06T12:42:18.775Z,56.79
2022-11-06T12:47:30.467Z,56.45
2022-11-06T12:52:55.389Z,54.95
2022-11-06T12:58:15.196Z,61.30
2022-11-06T13:03:50.251Z,56.06
2022-11-06T13:08:59.687Z,55.23
2022-11-06T13:14:20.644Z,56.15
2022-11-06T13:19:31.642Z,55.81
2022-11-06T13:24:41.597Z,56.33
2022-11-06T13:29:46.724Z,57.38
2022-11-06T13:34:53.588Z,57.54
2022-11-06T13:40:02.868Z,59.51
2022-11-06T13:45:09.542Z,61.60
2022-11-06T13:50:20.838Z,61.53
2022-11-06T13:55:34.417Z,62.36
2022-11-06T14:00:49.318Z,63.33
2022-11-06T14:05:58.775Z,64.82
2022-11-06T14:11:06.701Z,64.90
2022-11-06T14:16:29.972Z,65.82
2022-11-06T14:21:51.910Z,65.83
2022-11-06T14:26:54.871Z,68.17
2022-11-06T14:32:03.258Z,68.69
2022-11-06T14:37:39.450Z,68.75
2022-11-06T14:42:45.677Z,68.93
2022-11-06T14:47:56.555Z,68.37
2022-11-06T14:53:02.573Z,70.85
2022-11-06T14:58:20.123Z,71.60
2022-11-06T15:03:33.538Z,70.24
2022-11-06T15:09:13.012Z,69.27
2022-11-06T15:14:53.709Z,70.45
2022-11-06T15:20:08.975Z,70.93
2022-11-06T15:25:22.822Z,72.56
2022-11-06T15:30:27.130Z,72.28
2022-11-06T15:35:36.757Z,71.99
2022-11-06T15:40:41.829Z,72.97
2022-11-06T15:45:44.884Z,72.41
2022-11-06T15:50:49.172Z,73.60
2022-11-06T15:55:56.801Z,74.81
2022-11-06T16:01:00.979Z,75.29
2022-11-06T16:06:06.105Z,75.80
2022-11-06T16:11:13.594Z,76.49
2022-11-06T16:16:35.936Z,77.41
2022-11-06T16:21:40.345Z,77.14
2022-11-06T16:26:48.162Z,77.71
2022-11-06T16:32:01.101Z,77.24
2022-11-06T16:37:07.177Z,78.77
2022-11-06T16:42:27.197Z,78.92
2022-11-06T16:47:30.600Z,78.80
2022-11-06T16:52:38.862Z,79.21
2022-11-06T16:57:45.988Z,80.24
2022-11-06T17:02:51.481Z,79.87
2022-11-06T17:08:08.082Z,80.21
2022-11-06T17:13:14.769Z,81.15
2022-11-06T17:18:20.481Z,80.72
2022-11-06T17:23:27.458Z,81.22
2022-11-06T17:28:30.553Z,82.08
2022-11-06T17:33:33.506Z,82.70
2022-11-06T17:43:41.068Z,82.84
2022-11-06T17:48:43.996Z,82.41
2022-11-06T17:53:49.464Z,82.07
2022-11-06T17:58:52.818Z,82.64
2022-11-06T18:03:55.854Z,82.98
2022-11-06T18:09:01.238Z,83.47
2022-11-06T18:14:04.939Z,84.47
2022-11-06T18:19:09.405Z,82.74
2022-11-06T18:24:13.836Z,82.32
2022-11-06T18:29:16.762Z,82.50
2022-11-06T18:34:21.308Z,83.41
2022-11-06T18:39:25.885Z,84.18
2022-11-06T18:44:28.904Z,83.91
2022-11-06T18:49:31.871Z,84.91
2022-11-06T18:54:36.266Z,85.22
2022-11-06T18:59:39.171Z,84.69
2022-11-06T19:04:42.101Z,84.62
2022-11-06T19:09:46.423Z,83.51
2022-11-06T19:14:49.376Z,84.22
2022-11-06T19:19:52.393Z,83.94
2022-11-06T19:24:56.702Z,83.07
2022-11-06T19:29:59.659Z,83.63
2022-11-06T19:35:02.603Z,83.13
2022-11-06T19:40:08.738Z,84.78
2022-11-06T19:45:12.070Z,86.17
2022-11-06T19:50:15.032Z,87.58
2022-11-06T19:55:26.311Z,87.72
2022-11-06T20:00:30.599Z,87.12
2022-11-06T20:05:33.547Z,86.98
2022-11-06T20:10:38.252Z,87.24
2022-11-06T20:15:41.263Z,86.68
2022-11-06T20:20:44.173Z,87.00
2022-11-06T20:25:53.065Z,86.74
2022-11-06T20:30:56.155Z,86.90
2022-11-06T20:35:59.130Z,86.68
2022-11-06T20:41:03.425Z,87.11
2022-11-06T20:46:06.757Z,86.67
2022-11-06T20:51:11.975Z,86.20
2022-11-06T20:56:18.367Z,86.00
2022-11-06T21:01:23.662Z,86.28
2022-11-06T21:06:27.764Z,86.18
2022-11-06T21:11:32.133Z,87.74
2022-11-06T21:16:37.283Z,87.21
2022-11-06T21:21:40.850Z,87.11
2022-11-06T21:26:45.196Z,87.26
2022-11-06T21:31:49.285Z,85.79
2022-11-06T21:36:52.412Z,87.04
2022-11-06T21:41:56.732Z,85.53
2022-11-06T21:46:59.741Z,86.10
2022-11-06T21:52:17.655Z,85.35
2022-11-06T21:57:23.181Z,81.29
2022-11-06T22:02:26.250Z,84.20
2022-11-06T22:07:29.309Z,84.84
2022-11-06T22:12:35.408Z,85.15
2022-11-06T22:17:38.311Z,86.18
2022-11-06T22:22:41.304Z,86.09
2022-11-06T22:27:45.688Z,87.21
2022-11-06T22:32:48.656Z,82.86
2022-11-06T22:37:51.580Z,78.00
2022-11-06T22:42:55.859Z,79.33
2022-11-06T22:47:59.163Z,82.42
2022-11-06T22:53:02.131Z,83.95
2022-11-06T22:58:06.505Z,86.47
2022-11-06T23:03:09.463Z,85.02
2022-11-06T23:08:12.440Z,82.29
2022-11-06T23:13:16.821Z,79.88
2022-11-06T23:18:19.741Z,81.65
2022-11-06T23:23:22.667Z,83.09
2022-11-06T23:28:26.994Z,81.26
2022-11-06T23:33:31.653Z,80.73
2022-11-06T23:38:34.580Z,80.46
2022-11-06T23:43:38.860Z,78.95
2022-11-06T23:48:41.776Z,76.59
2022-11-06T23:53:44.788Z,76.39
2022-11-06T23:58:49.123Z,77.42
